sensor_id;sensor_type;location;lat;lon;timestamp;pressure;altitude;pressure_sealevel;temperature;humidity
68948;BME280;55996;49.546;7.400;2023-06-01T00:01:44;98930.09;;;13.83;82.92
68948;BME280;55996;49.546;7.400;2023-06-01T00:04:10;98947.69;;;13.81;83.43
68948;BME280;55996;49.546;7.400;2023-06-01T00:06:35;98951.53;;;13.30;87.49
68948;BME280;55996;49.546;7.400;2023-06-01T00:09:01;98945.81;;;13.42;87.74
68948;BME280;55996;49.546;7.400;2023-06-01T00:11:27;98945.31;;;13.54;86.32
68948;BME280;55996;49.546;7.400;2023-06-01T00:13:53;98946.53;;;13.46;87.38
68948;BME280;55996;49.546;7.400;2023-06-01T00:16:19;98944.69;;;13.48;86.18
68948;BME280;55996;49.546;7.400;2023-06-01T00:18:45;98950.03;;;13.46;86.26
68948;BME280;55996;49.546;7.400;2023-06-01T00:21:11;98945.56;;;13.48;85.54
68948;BME280;55996;49.546;7.400;2023-06-01T00:23:37;98936.22;;;13.41;86.98
68948;BME280;55996;49.546;7.400;2023-06-01T00:26:06;98928.13;;;13.46;85.97
68948;BME280;55996;49.546;7.400;2023-06-01T00:28:33;98942.16;;;13.46;85.81
68948;BME280;55996;49.546;7.400;2023-06-01T00:30:58;98936.22;;;13.41;85.91
68948;BME280;55996;49.546;7.400;2023-06-01T00:33:24;98926.72;;;13.38;86.06
68948;BME280;55996;49.546;7.400;2023-06-01T00:35:49;98937.22;;;13.38;86.23
68948;BME280;55996;49.546;7.400;2023-06-01T00:38:15;98929.59;;;13.31;86.93
68948;BME280;55996;49.546;7.400;2023-06-01T00:40:40;98920.44;;;13.19;87.56
68948;BME280;55996;49.546;7.400;2023-06-01T00:43:06;98930.16;;;13.17;86.46
68948;BME280;55996;49.546;7.400;2023-06-01T00:45:31;98912.94;;;13.10;87.66
68948;BME280;55996;49.546;7.400;2023-06-01T00:47:57;98907.88;;;13.05;87.28
68948;BME280;55996;49.546;7.400;2023-06-01T00:50:23;98917.19;;;13.12;88.08
68948;BME280;55996;49.546;7.400;2023-06-01T00:52:49;98920.03;;;13.07;88.44
68948;BME280;55996;49.546;7.400;2023-06-01T00:55:15;98919.47;;;12.99;87.85
68948;BME280;55996;49.546;7.400;2023-06-01T00:57:44;98918.63;;;12.99;89.56
68948;BME280;55996;49.546;7.400;2023-06-01T01:00:11;98927.56;;;12.93;89.30
68948;BME280;55996;49.546;7.400;2023-06-01T01:02:38;98917.22;;;12.90;88.84
68948;BME280;55996;49.546;7.400;2023-06-01T01:05:08;98919.34;;;12.80;89.73
68948;BME280;55996;49.546;7.400;2023-06-01T01:18:27;98933.16;;;12.62;91.18
68948;BME280;55996;49.546;7.400;2023-06-01T01:21:01;98937.47;;;12.63;89.77
68948;BME280;55996;49.546;7.400;2023-06-01T01:24:00;98922.09;;;12.53;89.83
68948;BME280;55996;49.546;7.400;2023-06-01T01:29:16;98937.81;;;12.53;92.25
68948;BME280;55996;49.546;7.400;2023-06-01T01:31:44;98942.25;;;12.51;91.17
68948;BME280;55996;49.546;7.400;2023-06-01T01:34:10;98933.69;;;12.46;91.73
68948;BME280;55996;49.546;7.400;2023-06-01T01:36:36;98932.34;;;12.36;91.40
68948;BME280;55996;49.546;7.400;2023-06-01T01:39:03;98931.25;;;12.41;91.68
68948;BME280;55996;49.546;7.400;2023-06-01T01:41:28;98934.84;;;12.39;92.54
68948;BME280;55996;49.546;7.400;2023-06-01T01:43:54;98930.00;;;12.28;92.25
68948;BME280;55996;49.546;7.400;2023-06-01T01:46:24;98931.69;;;12.29;92.09
68948;BME280;55996;49.546;7.400;2023-06-01T01:49:18;98936.94;;;12.29;91.91
68948;BME280;55996;49.546;7.400;2023-06-01T01:51:54;98930.09;;;12.25;92.11
68948;BME280;55996;49.546;7.400;2023-06-01T01:54:21;98936.47;;;12.18;93.38
68948;BME280;55996;49.546;7.400;2023-06-01T01:56:49;98938.03;;;12.23;93.11
68948;BME280;55996;49.546;7.400;2023-06-01T01:59:19;98926.94;;;12.15;92.94
68948;BME280;55996;49.546;7.400;2023-06-01T02:01:46;98920.44;;;12.02;94.05
68948;BME280;55996;49.546;7.400;2023-06-01T02:04:11;98930.06;;;12.01;95.46
68948;BME280;55996;49.546;7.400;2023-06-01T02:06:36;98927.38;;;12.03;96.28
68948;BME280;55996;49.546;7.400;2023-06-01T02:09:05;98923.97;;;12.01;95.58
68948;BME280;55996;49.546;7.400;2023-06-01T02:11:35;98925.78;;;11.99;95.26
68948;BME280;55996;49.546;7.400;2023-06-01T02:14:00;98927.59;;;11.97;94.48
68948;BME280;55996;49.546;7.400;2023-06-01T02:16:26;98914.63;;;11.92;94.75
68948;BME280;55996;49.546;7.400;2023-06-01T02:18:52;98914.69;;;11.90;95.55
68948;BME280;55996;49.546;7.400;2023-06-01T02:21:17;98914.81;;;11.87;95.43
68948;BME280;55996;49.546;7.400;2023-06-01T02:23:43;98912.19;;;11.87;96.38
68948;BME280;55996;49.546;7.400;2023-06-01T02:26:09;98910.63;;;11.82;97.10
68948;BME280;55996;49.546;7.400;2023-06-01T02:28:39;98903.72;;;11.79;96.45
68948;BME280;55996;49.546;7.400;2023-06-01T02:31:06;98922.00;;;11.81;95.43
68948;BME280;55996;49.546;7.400;2023-06-01T02:33:32;98915.09;;;11.78;95.76
68948;BME280;55996;49.546;7.400;2023-06-01T02:35:58;98910.75;;;11.77;96.28
68948;BME280;55996;49.546;7.400;2023-06-01T02:38:23;98904.97;;;11.69;97.08
68948;BME280;55996;49.546;7.400;2023-06-01T02:40:48;98906.69;;;11.68;96.43
68948;BME280;55996;49.546;7.400;2023-06-01T02:43:14;98917.28;;;11.65;96.80
68948;BME280;55996;49.546;7.400;2023-06-01T02:45:39;98903.59;;;11.57;97.15
68948;BME280;55996;49.546;7.400;2023-06-01T02:48:05;98909.72;;;11.57;99.10
68948;BME280;55996;49.546;7.400;2023-06-01T02:50:30;98910.59;;;11.56;99.86
68948;BME280;55996;49.546;7.400;2023-06-01T02:52:56;98908.97;;;11.52;99.37
68948;BME280;55996;49.546;7.400;2023-06-01T02:55:21;98907.38;;;11.48;99.11
68948;BME280;55996;49.546;7.400;2023-06-01T02:57:47;98905.66;;;11.47;99.61
68948;BME280;55996;49.546;7.400;2023-06-01T03:00:12;98904.91;;;11.43;99.31
68948;BME280;55996;49.546;7.400;2023-06-01T03:02:47;98911.97;;;11.41;99.05
68948;BME280;55996;49.546;7.400;2023-06-01T03:05:13;98905.03;;;11.40;100.00
68948;BME280;55996;49.546;7.400;2023-06-01T03:07:43;98908.59;;;11.38;100.00
68948;BME280;55996;49.546;7.400;2023-06-01T03:10:09;98906.19;;;11.32;100.00
68948;BME280;55996;49.546;7.400;2023-06-01T03:12:35;98896.75;;;11.26;100.00
68948;BME280;55996;49.546;7.400;2023-06-01T03:15:01;98907.13;;;11.29;100.00
68948;BME280;55996;49.546;7.400;2023-06-01T03:17:27;98907.84;;;11.34;100.00
68948;BME280;55996;49.546;7.400;2023-06-01T03:19:52;98906.19;;;11.32;100.00
68948;BME280;55996;49.546;7.400;2023-06-01T03:22:17;98908.09;;;11.26;100.00
68948;BME280;55996;49.546;7.400;2023-06-01T03:24:43;98910.00;;;11.21;100.00
68948;BME280;55996;49.546;7.400;2023-06-01T03:27:09;98908.38;;;11.17;100.00
68948;BME280;55996;49.546;7.400;2023-06-01T03:29:36;98921.47;;;11.17;100.00
68948;BME280;55996;49.546;7.400;2023-06-01T03:32:02;98895.53;;;11.09;100.00
68948;BME280;55996;49.546;7.400;2023-06-01T03:34:27;98912.91;;;11.12;100.00
68948;BME280;55996;49.546;7.400;2023-06-01T03:36:53;98918.00;;;11.17;100.00
68948;BME280;55996;49.546;7.400;2023-06-01T03:39:19;98918.06;;;11.15;100.00
68948;BME280;55996;49.546;7.400;2023-06-01T03:41:44;98907.03;;;11.04;100.00
68948;BME280;55996;49.546;7.400;2023-06-01T03:44:11;98915.56;;;11.10;100.00
68948;BME280;55996;49.546;7.400;2023-06-01T03:46:37;98917.38;;;11.08;100.00
68948;BME280;55996;49.546;7.400;2023-06-01T03:49:02;98917.56;;;11.02;100.00
68948;BME280;55996;49.546;7.400;2023-06-01T03:51:29;98920.06;;;11.07;100.00
68948;BME280;55996;49.546;7.400;2023-06-01T03:53:55;98924.38;;;11.08;100.00
68948;BME280;55996;49.546;7.400;2023-06-01T03:56:20;98927.75;;;11.11;100.00
68948;BME280;55996;49.546;7.400;2023-06-01T03:58:45;98925.16;;;11.10;100.00
68948;BME280;55996;49.546;7.400;2023-06-01T04:01:12;98914.25;;;10.97;100.00
68948;BME280;55996;49.546;7.400;2023-06-01T04:03:43;98921.00;;;11.04;100.00
68948;BME280;55996;49.546;7.400;2023-06-01T04:06:09;98921.06;;;11.03;100.00
68948;BME280;55996;49.546;7.400;2023-06-01T04:08:39;98921.78;;;11.08;100.00
68948;BME280;55996;49.546;7.400;2023-06-01T04:11:13;98929.63;;;11.08;100.00
68948;BME280;55996;49.546;7.400;2023-06-01T04:13:38;98926.28;;;11.03;100.00
68948;BME280;55996;49.546;7.400;2023-06-01T04:16:04;98935.44;;;11.16;100.00
68948;BME280;55996;49.546;7.400;2023-06-01T04:18:30;98917.28;;;11.11;100.00
68948;BME280;55996;49.546;7.400;2023-06-01T04:20:55;98934.28;;;11.25;100.00
68948;BME280;55996;49.546;7.400;2023-06-01T04:23:21;98927.38;;;11.24;100.00
68948;BME280;55996;49.546;7.400;2023-06-01T04:25:47;98929.81;;;11.28;100.00
68948;BME280;55996;49.546;7.400;2023-06-01T04:28:16;98930.53;;;11.34;100.00
68948;BME280;55996;49.546;7.400;2023-06-01T04:30:42;98930.44;;;11.37;100.00
68948;BME280;55996;49.546;7.400;2023-06-01T04:33:09;98938.84;;;11.46;100.00
68948;BME280;55996;49.546;7.400;2023-06-01T04:35:35;98937.06;;;11.49;100.00
68948;BME280;55996;49.546;7.400;2023-06-01T04:38:02;98938.59;;;11.54;100.00
68948;BME280;55996;49.546;7.400;2023-06-01T04:40:28;98939.34;;;11.58;100.00
68948;BME280;55996;49.546;7.400;2023-06-01T04:42:53;98940.94;;;11.63;100.00
68948;BME280;55996;49.546;7.400;2023-06-01T04:45:23;98935.56;;;11.67;100.00
68948;BME280;55996;49.546;7.400;2023-06-01T04:47:48;98946.03;;;11.67;100.00
68948;BME280;55996;49.546;7.400;2023-06-01T04:50:15;98942.31;;;11.74;100.00
68948;BME280;55996;49.546;7.400;2023-06-01T04:52:42;98936.75;;;11.83;100.00
68948;BME280;55996;49.546;7.400;2023-06-01T04:55:09;98926.19;;;11.86;100.00
68948;BME280;55996;49.546;7.400;2023-06-01T04:57:34;98931.03;;;11.99;100.00
68948;BME280;55996;49.546;7.400;2023-06-01T05:00:05;98934.88;;;12.14;100.00
68948;BME280;55996;49.546;7.400;2023-06-01T05:02:36;98922.53;;;12.17;100.00
68948;BME280;55996;49.546;7.400;2023-06-01T05:05:02;98942.16;;;12.31;100.00
68948;BME280;55996;49.546;7.400;2023-06-01T05:07:29;98930.63;;;12.35;100.00
68948;BME280;55996;49.546;7.400;2023-06-01T05:09:55;98930.97;;;12.49;100.00
68948;BME280;55996;49.546;7.400;2023-06-01T05:12:20;98941.56;;;12.70;100.00
68948;BME280;55996;49.546;7.400;2023-06-01T05:14:46;98929.47;;;12.89;100.00
68948;BME280;55996;49.546;7.400;2023-06-01T05:17:11;98920.03;;;13.07;100.00
68948;BME280;55996;49.546;7.400;2023-06-01T05:19:37;98932.41;;;13.26;99.80
68948;BME280;55996;49.546;7.400;2023-06-01T05:22:02;98929.34;;;13.38;99.30
68948;BME280;55996;49.546;7.400;2023-06-01T05:24:28;98922.88;;;13.46;100.00
68948;BME280;55996;49.546;7.400;2023-06-01T05:26:53;98924.31;;;13.54;99.09
68948;BME280;55996;49.546;7.400;2023-06-01T05:29:18;98924.81;;;13.63;98.12
68948;BME280;55996;49.546;7.400;2023-06-01T05:31:45;98922.00;;;13.67;98.18
68948;BME280;55996;49.546;7.400;2023-06-01T05:34:11;98927.72;;;13.77;98.47
68948;BME280;55996;49.546;7.400;2023-06-01T05:36:36;98929.91;;;13.88;98.71
68948;BME280;55996;49.546;7.400;2023-06-01T05:39:02;98927.72;;;13.98;98.65
68948;BME280;55996;49.546;7.400;2023-06-01T05:41:27;98919.56;;;14.04;96.38
68948;BME280;55996;49.546;7.400;2023-06-01T05:43:53;98914.63;;;14.17;98.67
68948;BME280;55996;49.546;7.400;2023-06-01T05:46:19;98925.34;;;14.33;97.21
68948;BME280;55996;49.546;7.400;2023-06-01T05:48:44;98923.91;;;14.45;96.29
68948;BME280;55996;49.546;7.400;2023-06-01T05:51:09;98919.97;;;14.55;95.80
68948;BME280;55996;49.546;7.400;2023-06-01T05:53:35;98915.72;;;14.72;96.08
68948;BME280;55996;49.546;7.400;2023-06-01T05:56:00;98914.31;;;14.83;94.23
68948;BME280;55996;49.546;7.400;2023-06-01T05:58:26;98916.13;;;15.00;94.24
68948;BME280;55996;49.546;7.400;2023-06-01T06:00:51;98919.66;;;15.19;93.37
68948;BME280;55996;49.546;7.400;2023-06-01T06:03:16;98921.03;;;15.45;92.61
68948;BME280;55996;49.546;7.400;2023-06-01T06:05:42;98910.09;;;15.70;93.01
68948;BME280;55996;49.546;7.400;2023-06-01T06:08:07;98913.44;;;15.91;92.10
68948;BME280;55996;49.546;7.400;2023-06-01T06:10:33;98914.34;;;16.25;88.49
68948;BME280;55996;49.546;7.400;2023-06-01T06:12:58;98903.09;;;16.55;85.78
68948;BME280;55996;49.546;7.400;2023-06-01T06:15:24;98904.97;;;16.85;85.79
68948;BME280;55996;49.546;7.400;2023-06-01T06:17:49;98905.09;;;17.16;85.10
68948;BME280;55996;49.546;7.400;2023-06-01T06:20:15;98900.28;;;17.38;84.94
68948;BME280;55996;49.546;7.400;2023-06-01T06:22:42;98892.50;;;17.66;81.94
68948;BME280;55996;49.546;7.400;2023-06-01T06:25:08;98900.09;;;18.02;81.78
68948;BME280;55996;49.546;7.400;2023-06-01T06:27:34;98895.09;;;18.27;78.33
68948;BME280;55996;49.546;7.400;2023-06-01T06:29:59;98901.00;;;18.59;76.46
68948;BME280;55996;49.546;7.400;2023-06-01T06:32:25;98901.06;;;18.86;76.84
68948;BME280;55996;49.546;7.400;2023-06-01T06:34:50;98891.38;;;19.14;73.84
68948;BME280;55996;49.546;7.400;2023-06-01T06:37:16;98895.19;;;19.38;73.79
68948;BME280;55996;49.546;7.400;2023-06-01T06:39:41;98899.38;;;19.67;72.27
68948;BME280;55996;49.546;7.400;2023-06-01T06:42:07;98891.97;;;19.73;73.97
68948;BME280;55996;49.546;7.400;2023-06-01T06:44:32;98886.19;;;19.93;64.47
68948;BME280;55996;49.546;7.400;2023-06-01T06:46:58;98897.22;;;20.13;59.19
68948;BME280;55996;49.546;7.400;2023-06-01T06:49:24;98884.44;;;20.57;60.17
68948;BME280;55996;49.546;7.400;2023-06-01T06:51:50;98895.13;;;20.81;59.76
68948;BME280;55996;49.546;7.400;2023-06-01T06:54:15;98882.94;;;21.03;57.50
68948;BME280;55996;49.546;7.400;2023-06-01T06:56:41;98873.72;;;21.20;53.70
68948;BME280;55996;49.546;7.400;2023-06-01T06:59:08;98875.66;;;21.18;55.25
68948;BME280;55996;49.546;7.400;2023-06-01T07:01:33;98884.47;;;21.18;53.11
68948;BME280;55996;49.546;7.400;2023-06-01T07:04:04;98873.16;;;21.27;54.10
68948;BME280;55996;49.546;7.400;2023-06-01T07:06:30;98880.63;;;21.22;52.34
68948;BME280;55996;49.546;7.400;2023-06-01T07:08:57;98881.69;;;21.44;54.32
68948;BME280;55996;49.546;7.400;2023-06-01T07:11:23;98875.53;;;21.79;50.27
68948;BME280;55996;49.546;7.400;2023-06-01T07:13:49;98871.91;;;21.80;49.79
68948;BME280;55996;49.546;7.400;2023-06-01T07:16:14;98874.50;;;22.16;50.31
68948;BME280;55996;49.546;7.400;2023-06-01T07:18:40;98877.50;;;22.34;49.59
68948;BME280;55996;49.546;7.400;2023-06-01T07:21:05;98877.66;;;22.55;47.76
68948;BME280;55996;49.546;7.400;2023-06-01T07:23:31;98880.03;;;22.81;46.24
68948;BME280;55996;49.546;7.400;2023-06-01T07:25:57;98879.72;;;22.74;46.94
68948;BME280;55996;49.546;7.400;2023-06-01T07:28:22;98869.13;;;22.95;48.41
68948;BME280;55996;49.546;7.400;2023-06-01T07:30:52;98878.69;;;22.98;48.86
68948;BME280;55996;49.546;7.400;2023-06-01T07:33:18;98875.13;;;23.52;47.88
68948;BME280;55996;49.546;7.400;2023-06-01T07:35:43;98872.13;;;23.67;46.57
68948;BME280;55996;49.546;7.400;2023-06-01T07:38:09;98878.91;;;23.71;44.77
68948;BME280;55996;49.546;7.400;2023-06-01T07:40:35;98870.56;;;23.64;45.12
68948;BME280;55996;49.546;7.400;2023-06-01T07:43:01;98883.63;;;23.46;46.42
68948;BME280;55996;49.546;7.400;2023-06-01T07:45:27;98880.75;;;23.38;45.82
68948;BME280;55996;49.546;7.400;2023-06-01T07:47:52;98882.47;;;23.60;45.25
68948;BME280;55996;49.546;7.400;2023-06-01T07:50:18;98886.78;;;24.15;46.14
68948;BME280;55996;49.546;7.400;2023-06-01T07:52:44;98882.63;;;24.01;44.04
68948;BME280;55996;49.546;7.400;2023-06-01T07:55:10;98889.72;;;24.12;43.39
68948;BME280;55996;49.546;7.400;2023-06-01T07:57:36;98879.44;;;24.69;42.54
68948;BME280;55996;49.546;7.400;2023-06-01T08:00:03;98877.19;;;24.74;44.50
68948;BME280;55996;49.546;7.400;2023-06-01T08:02:33;98869.47;;;24.40;42.52
68948;BME280;55996;49.546;7.400;2023-06-01T08:04:58;98872.56;;;24.76;43.37
68948;BME280;55996;49.546;7.400;2023-06-01T08:07:24;98869.66;;;25.09;45.00
68948;BME280;55996;49.546;7.400;2023-06-01T08:09:53;98871.38;;;25.29;43.52
68948;BME280;55996;49.546;7.400;2023-06-01T08:12:18;98874.59;;;25.04;42.26
68948;BME280;55996;49.546;7.400;2023-06-01T08:14:44;98863.91;;;25.23;42.64
68948;BME280;55996;49.546;7.400;2023-06-01T08:17:10;98856.22;;;26.07;43.29
68948;BME280;55996;49.546;7.400;2023-06-01T08:19:37;98861.34;;;26.38;41.66
68948;BME280;55996;49.546;7.400;2023-06-01T08:22:02;98846.56;;;25.76;41.97
68948;BME280;55996;49.546;7.400;2023-06-01T08:24:31;98849.13;;;25.49;41.68
68948;BME280;55996;49.546;7.400;2023-06-01T08:26:57;98854.84;;;24.85;43.69
68948;BME280;55996;49.546;7.400;2023-06-01T08:29:23;98843.75;;;25.58;43.30
68948;BME280;55996;49.546;7.400;2023-06-01T08:31:49;98853.66;;;25.38;42.95
68948;BME280;55996;49.546;7.400;2023-06-01T08:34:14;98846.00;;;25.73;41.73
68948;BME280;55996;49.546;7.400;2023-06-01T08:36:40;98847.03;;;26.00;41.06
68948;BME280;55996;49.546;7.400;2023-06-01T08:39:22;98850.53;;;26.30;41.32
68948;BME280;55996;49.546;7.400;2023-06-01T08:44:26;98857.66;;;26.11;41.13
68948;BME280;55996;49.546;7.400;2023-06-01T08:46:54;98847.91;;;26.76;40.82
68948;BME280;55996;49.546;7.400;2023-06-01T08:49:21;98837.25;;;26.84;41.31
68948;BME280;55996;49.546;7.400;2023-06-01T08:51:51;98840.03;;;26.92;39.51
68948;BME280;55996;49.546;7.400;2023-06-01T08:54:20;98840.41;;;26.97;40.91
68948;BME280;55996;49.546;7.400;2023-06-01T08:56:46;98836.75;;;27.79;38.58
68948;BME280;55996;49.546;7.400;2023-06-01T08:59:11;98834.28;;;27.59;38.78
68948;BME280;55996;49.546;7.400;2023-06-01T09:01:39;98828.25;;;28.10;37.98
68948;BME280;55996;49.546;7.400;2023-06-01T09:04:04;98833.03;;;27.72;38.31
68948;BME280;55996;49.546;7.400;2023-06-01T09:06:30;98826.75;;;27.89;38.54
68948;BME280;55996;49.546;7.400;2023-06-01T09:08:56;98827.84;;;26.80;38.56
68948;BME280;55996;49.546;7.400;2023-06-01T09:11:21;98838.09;;;27.38;39.81
68948;BME280;55996;49.546;7.400;2023-06-01T09:13:47;98828.13;;;27.13;39.42
68948;BME280;55996;49.546;7.400;2023-06-01T09:16:13;98828.13;;;27.13;38.21
68948;BME280;55996;49.546;7.400;2023-06-01T09:18:58;98823.81;;;27.74;38.37
68948;BME280;55996;49.546;7.400;2023-06-01T09:21:24;98833.34;;;26.96;38.03
68948;BME280;55996;49.546;7.400;2023-06-01T09:23:50;98820.91;;;27.67;37.53
68948;BME280;55996;49.546;7.400;2023-06-01T09:26:17;98818.16;;;28.12;36.67
68948;BME280;55996;49.546;7.400;2023-06-01T09:31:36;98820.63;;;27.34;36.92
68948;BME280;55996;49.546;7.400;2023-06-01T09:34:03;98821.97;;;28.36;37.03
68948;BME280;55996;49.546;7.400;2023-06-01T09:36:29;98809.19;;;28.29;35.45
68948;BME280;55996;49.546;7.400;2023-06-01T09:39:08;98801.84;;;28.05;36.21
68948;BME280;55996;49.546;7.400;2023-06-01T09:42:04;98808.75;;;28.08;36.78
68948;BME280;55996;49.546;7.400;2023-06-01T09:44:36;98800.75;;;28.24;36.79
68948;BME280;55996;49.546;7.400;2023-06-01T09:47:04;98808.16;;;27.07;36.90
68948;BME280;55996;49.546;7.400;2023-06-01T09:49:43;98798.81;;;28.51;40.92
68948;BME280;55996;49.546;7.400;2023-06-01T09:52:10;98805.22;;;28.50;36.69
68948;BME280;55996;49.546;7.400;2023-06-01T09:57:04;98794.72;;;28.73;34.82
68948;BME280;55996;49.546;7.400;2023-06-01T09:59:42;98797.97;;;29.43;36.52
68948;BME280;55996;49.546;7.400;2023-06-01T10:02:26;98783.78;;;29.90;35.79
68948;BME280;55996;49.546;7.400;2023-06-01T10:04:55;98794.56;;;29.90;32.83
68948;BME280;55996;49.546;7.400;2023-06-01T10:07:25;98790.56;;;29.61;34.28
68948;BME280;55996;49.546;7.400;2023-06-01T10:09:54;98791.41;;;28.45;34.77
68948;BME280;55996;49.546;7.400;2023-06-01T10:12:21;98779.59;;;29.79;35.64
68948;BME280;55996;49.546;7.400;2023-06-01T10:14:50;98774.78;;;30.06;34.27
68948;BME280;55996;49.546;7.400;2023-06-01T10:17:16;98775.59;;;30.15;35.33
68948;BME280;55996;49.546;7.400;2023-06-01T10:19:42;98775.00;;;29.88;35.18
68948;BME280;55996;49.546;7.400;2023-06-01T10:22:09;98777.91;;;29.70;34.31
68948;BME280;55996;49.546;7.400;2023-06-01T10:24:37;98789.22;;;29.24;36.04
68948;BME280;55996;49.546;7.400;2023-06-01T10:27:18;98778.94;;;29.28;33.62
68948;BME280;55996;49.546;7.400;2023-06-01T10:29:48;98765.66;;;29.26;34.39
68948;BME280;55996;49.546;7.400;2023-06-01T10:40:36;98761.16;;;30.39;32.94
68948;BME280;55996;49.546;7.400;2023-06-01T10:43:03;98755.28;;;30.67;33.27
68948;BME280;55996;49.546;7.400;2023-06-01T10:45:35;98754.88;;;30.79;32.57
68948;BME280;55996;49.546;7.400;2023-06-01T10:48:05;98748.53;;;30.71;31.97
68948;BME280;55996;49.546;7.400;2023-06-01T10:50:34;98752.31;;;30.54;33.13
68948;BME280;55996;49.546;7.400;2023-06-01T10:53:29;98756.28;;;29.87;32.40
68948;BME280;55996;49.546;7.400;2023-06-01T10:56:17;98757.47;;;29.84;33.68
68948;BME280;55996;49.546;7.400;2023-06-01T10:58:43;98754.66;;;30.65;33.60
68948;BME280;55996;49.546;7.400;2023-06-01T11:01:10;98737.00;;;31.39;30.93
68948;BME280;55996;49.546;7.400;2023-06-01T11:03:48;98740.28;;;31.49;33.85
68948;BME280;55996;49.546;7.400;2023-06-01T11:06:33;98741.75;;;31.37;30.89
68948;BME280;55996;49.546;7.400;2023-06-01T11:09:02;98741.13;;;31.35;33.74
68948;BME280;55996;49.546;7.400;2023-06-01T11:14:24;98738.72;;;31.55;32.13
68948;BME280;55996;49.546;7.400;2023-06-01T11:16:50;98729.66;;;31.63;30.09
68948;BME280;55996;49.546;7.400;2023-06-01T11:19:19;98731.53;;;31.47;30.53
68948;BME280;55996;49.546;7.400;2023-06-01T11:21:56;98737.94;;;29.99;33.54
68948;BME280;55996;49.546;7.400;2023-06-01T11:24:32;98734.09;;;31.26;30.63
68948;BME280;55996;49.546;7.400;2023-06-01T11:26:59;98729.56;;;31.41;33.48
68948;BME280;55996;49.546;7.400;2023-06-01T11:29:29;98725.22;;;31.17;31.77
68948;BME280;55996;49.546;7.400;2023-06-01T11:31:57;98716.97;;;30.72;31.64
68948;BME280;55996;49.546;7.400;2023-06-01T11:34:36;98725.91;;;31.19;31.60
68948;BME280;55996;49.546;7.400;2023-06-01T11:37:17;98726.13;;;32.07;30.84
68948;BME280;55996;49.546;7.400;2023-06-01T11:39:44;98720.25;;;32.03;29.87
68948;BME280;55996;49.546;7.400;2023-06-01T11:42:15;98722.19;;;31.35;30.27
68948;BME280;55996;49.546;7.400;2023-06-01T11:44:43;98719.44;;;32.03;32.10
68948;BME280;55996;49.546;7.400;2023-06-01T11:47:11;98711.28;;;32.91;31.06
68948;BME280;55996;49.546;7.400;2023-06-01T11:49:47;98713.88;;;30.98;30.85
68948;BME280;55996;49.546;7.400;2023-06-01T11:52:17;98709.53;;;31.50;29.97
68948;BME280;55996;49.546;7.400;2023-06-01T11:54:43;98706.13;;;30.25;30.67
68948;BME280;55996;49.546;7.400;2023-06-01T11:57:09;98704.22;;;31.27;31.18
68948;BME280;55996;49.546;7.400;2023-06-01T11:59:40;98698.84;;;31.57;30.18
68948;BME280;55996;49.546;7.400;2023-06-01T12:02:25;98697.16;;;31.03;30.63
68948;BME280;55996;49.546;7.400;2023-06-01T12:05:14;98698.13;;;31.10;29.12
68948;BME280;55996;49.546;7.400;2023-06-01T12:07:47;98699.09;;;31.17;30.39
68948;BME280;55996;49.546;7.400;2023-06-01T12:10:15;98692.34;;;31.66;29.17
68948;BME280;55996;49.546;7.400;2023-06-01T12:12:42;98686.38;;;31.71;31.51
68948;BME280;55996;49.546;7.400;2023-06-01T12:15:11;98678.91;;;32.61;28.98
68948;BME280;55996;49.546;7.400;2023-06-01T12:20:12;98683.06;;;32.21;28.78
68948;BME280;55996;49.546;7.400;2023-06-01T12:22:37;98673.63;;;32.01;29.18
68948;BME280;55996;49.546;7.400;2023-06-01T12:25:06;98666.31;;;32.54;29.61
68948;BME280;55996;49.546;7.400;2023-06-01T12:27:33;98660.84;;;33.47;28.28
68948;BME280;55996;49.546;7.400;2023-06-01T12:30:01;98673.94;;;32.65;27.41
68948;BME280;55996;49.546;7.400;2023-06-01T12:32:37;98676.84;;;31.45;27.41
68948;BME280;55996;49.546;7.400;2023-06-01T12:35:04;98673.06;;;31.69;29.00
68948;BME280;55996;49.546;7.400;2023-06-01T12:37:31;98671.50;;;30.84;28.86
68948;BME280;55996;49.546;7.400;2023-06-01T12:39:57;98665.22;;;31.75;28.43
68948;BME280;55996;49.546;7.400;2023-06-01T12:42:35;98662.47;;;32.63;29.86
68948;BME280;55996;49.546;7.400;2023-06-01T12:45:04;98658.25;;;33.04;28.60
68948;BME280;55996;49.546;7.400;2023-06-01T12:47:37;98659.81;;;32.91;28.46
68948;BME280;55996;49.546;7.400;2023-06-01T12:50:12;98665.84;;;31.47;27.36
68948;BME280;55996;49.546;7.400;2023-06-01T12:52:40;98674.03;;;31.09;29.66
68948;BME280;55996;49.546;7.400;2023-06-01T12:55:06;98666.50;;;30.96;29.42
68948;BME280;55996;49.546;7.400;2023-06-01T12:57:35;98664.66;;;31.79;29.13
68948;BME280;55996;49.546;7.400;2023-06-01T13:00:01;98649.13;;;32.83;28.07
68948;BME280;55996;49.546;7.400;2023-06-01T13:02:27;98649.81;;;32.27;27.84
68948;BME280;55996;49.546;7.400;2023-06-01T13:04:53;98650.66;;;32.49;28.02
68948;BME280;55996;49.546;7.400;2023-06-01T13:07:19;98644.31;;;32.35;28.89
68948;BME280;55996;49.546;7.400;2023-06-01T13:09:47;98641.78;;;31.97;28.47
68948;BME280;55996;49.546;7.400;2023-06-01T13:12:13;98651.25;;;30.65;30.17
68948;BME280;55996;49.546;7.400;2023-06-01T13:14:38;98648.44;;;30.96;29.21
68948;BME280;55996;49.546;7.400;2023-06-01T13:17:04;98645.91;;;30.95;28.88
68948;BME280;55996;49.546;7.400;2023-06-01T13:19:29;98642.44;;;31.39;29.04
68948;BME280;55996;49.546;7.400;2023-06-01T13:21:55;98637.31;;;31.74;29.87
68948;BME280;55996;49.546;7.400;2023-06-01T13:24:21;98645.06;;;32.50;28.92
68948;BME280;55996;49.546;7.400;2023-06-01T13:26:47;98639.94;;;31.37;29.04
68948;BME280;55996;49.546;7.400;2023-06-01T13:29:13;98641.72;;;31.75;28.57
68948;BME280;55996;49.546;7.400;2023-06-01T13:31:38;98640.03;;;31.74;28.08
68948;BME280;55996;49.546;7.400;2023-06-01T13:34:04;98640.34;;;32.01;28.44
68948;BME280;55996;49.546;7.400;2023-06-01T13:36:30;98638.91;;;31.53;28.73